sensor_id;sensor_type;location;lat;lon;timestamp;P1;durP1;ratioP1;P2;durP2;ratioP2
13404;SDS011;6773;51.192;7.024;2023-12-22T00:01:18;5.63;;;2.13;;
13404;SDS011;6773;51.192;7.024;2023-12-22T00:03:44;4.90;;;1.80;;
13404;SDS011;6773;51.192;7.024;2023-12-22T00:06:12;5.30;;;2.17;;
13404;SDS011;6773;51.192;7.024;2023-12-22T00:08:38;2.87;;;1.90;;
13404;SDS011;6773;51.192;7.024;2023-12-22T00:11:04;3.90;;;2.13;;
13404;SDS011;6773;51.192;7.024;2023-12-22T00:13:30;3.30;;;1.77;;
13404;SDS011;6773;51.192;7.024;2023-12-22T00:15:58;2.70;;;1.73;;
13404;SDS011;6773;51.192;7.024;2023-12-22T00:18:24;2.03;;;1.63;;
13404;SDS011;6773;51.192;7.024;2023-12-22T00:20:50;2.07;;;1.50;;
13404;SDS011;6773;51.192;7.024;2023-12-22T00:23:16;8.97;;;2.33;;
13404;SDS011;6773;51.192;7.024;2023-12-22T00:25:42;6.63;;;2.00;;
13404;SDS011;6773;51.192;7.024;2023-12-22T00:28:08;8.80;;;2.47;;
13404;SDS011;6773;51.192;7.024;2023-12-22T00:30:34;4.30;;;1.80;;
13404;SDS011;6773;51.192;7.024;2023-12-22T00:32:59;6.50;;;2.20;;
13404;SDS011;6773;51.192;7.024;2023-12-22T00:35:25;6.60;;;1.80;;
13404;SDS011;6773;51.192;7.024;2023-12-22T00:37:51;4.90;;;1.73;;
13404;SDS011;6773;51.192;7.024;2023-12-22T00:40:18;5.23;;;2.23;;
13404;SDS011;6773;51.192;7.024;2023-12-22T00:42:44;3.73;;;1.83;;
13404;SDS011;6773;51.192;7.024;2023-12-22T00:45:10;6.37;;;1.90;;
13404;SDS011;6773;51.192;7.024;2023-12-22T00:47:36;5.00;;;2.00;;
13404;SDS011;6773;51.192;7.024;2023-12-22T00:50:02;3.83;;;1.57;;
13404;SDS011;6773;51.192;7.024;2023-12-22T00:52:29;5.90;;;1.97;;
13404;SDS011;6773;51.192;7.024;2023-12-22T00:54:55;3.37;;;1.63;;
13404;SDS011;6773;51.192;7.024;2023-12-22T00:57:21;4.73;;;1.90;;
13404;SDS011;6773;51.192;7.024;2023-12-22T00:59:47;7.07;;;2.40;;
13404;SDS011;6773;51.192;7.024;2023-12-22T01:02:13;5.20;;;1.70;;
13404;SDS011;6773;51.192;7.024;2023-12-22T01:04:42;5.53;;;2.10;;
13404;SDS011;6773;51.192;7.024;2023-12-22T01:07:08;3.73;;;1.90;;
13404;SDS011;6773;51.192;7.024;2023-12-22T01:09:35;4.80;;;1.87;;
13404;SDS011;6773;51.192;7.024;2023-12-22T01:12:04;5.70;;;2.13;;
13404;SDS011;6773;51.192;7.024;2023-12-22T01:14:31;8.13;;;2.43;;
13404;SDS011;6773;51.192;7.024;2023-12-22T01:16:56;7.10;;;2.00;;
13404;SDS011;6773;51.192;7.024;2023-12-22T01:19:24;10.20;;;2.37;;
13404;SDS011;6773;51.192;7.024;2023-12-22T01:21:55;6.90;;;2.60;;
13404;SDS011;6773;51.192;7.024;2023-12-22T01:24:21;4.27;;;1.87;;
13404;SDS011;6773;51.192;7.024;2023-12-22T01:26:57;5.93;;;2.33;;
13404;SDS011;6773;51.192;7.024;2023-12-22T01:29:27;4.27;;;2.00;;
13404;SDS011;6773;51.192;7.024;2023-12-22T01:31:53;3.70;;;2.30;;
13404;SDS011;6773;51.192;7.024;2023-12-22T01:34:19;8.57;;;2.17;;
13404;SDS011;6773;51.192;7.024;2023-12-22T01:36:45;9.67;;;2.33;;
13404;SDS011;6773;51.192;7.024;2023-12-22T01:39:29;7.93;;;2.70;;
13404;SDS011;6773;51.192;7.024;2023-12-22T01:41:55;2.47;;;1.93;;
13404;SDS011;6773;51.192;7.024;2023-12-22T01:44:26;3.40;;;1.57;;
13404;SDS011;6773;51.192;7.024;2023-12-22T01:47:10;8.67;;;2.27;;
13404;SDS011;6773;51.192;7.024;2023-12-22T01:49:36;4.83;;;2.17;;
13404;SDS011;6773;51.192;7.024;2023-12-22T01:55:02;4.47;;;1.90;;
13404;SDS011;6773;51.192;7.024;2023-12-22T01:57:29;3.47;;;1.87;;
13404;SDS011;6773;51.192;7.024;2023-12-22T02:00:06;3.63;;;2.00;;
13404;SDS011;6773;51.192;7.024;2023-12-22T02:02:41;6.90;;;2.30;;
13404;SDS011;6773;51.192;7.024;2023-12-22T02:05:10;6.27;;;2.30;;
13404;SDS011;6773;51.192;7.024;2023-12-22T02:07:37;5.37;;;1.80;;
13404;SDS011;6773;51.192;7.024;2023-12-22T02:10:07;4.43;;;2.00;;
13404;SDS011;6773;51.192;7.024;2023-12-22T02:12:33;5.80;;;1.90;;
13404;SDS011;6773;51.192;7.024;2023-12-22T02:14:59;10.57;;;2.87;;
13404;SDS011;6773;51.192;7.024;2023-12-22T02:20:12;5.60;;;2.30;;
13404;SDS011;6773;51.192;7.024;2023-12-22T02:22:38;4.93;;;2.63;;
13404;SDS011;6773;51.192;7.024;2023-12-22T02:25:04;7.67;;;2.40;;
13404;SDS011;6773;51.192;7.024;2023-12-22T02:27:49;6.00;;;2.83;;
13404;SDS011;6773;51.192;7.024;2023-12-22T02:32:49;1.90;;;1.70;;
13404;SDS011;6773;51.192;7.024;2023-12-22T02:35:19;2.47;;;2.00;;
13404;SDS011;6773;51.192;7.024;2023-12-22T02:37:46;3.43;;;1.70;;
13404;SDS011;6773;51.192;7.024;2023-12-22T02:40:14;10.43;;;2.20;;
13404;SDS011;6773;51.192;7.024;2023-12-22T02:42:40;6.47;;;1.90;;
13404;SDS011;6773;51.192;7.024;2023-12-22T02:45:12;2.83;;;2.00;;
13404;SDS011;6773;51.192;7.024;2023-12-22T02:47:39;5.83;;;2.03;;
13404;SDS011;6773;51.192;7.024;2023-12-22T02:50:06;2.87;;;1.70;;
13404;SDS011;6773;51.192;7.024;2023-12-22T02:52:32;4.80;;;1.77;;
13404;SDS011;6773;51.192;7.024;2023-12-22T02:54:58;6.40;;;2.60;;
13404;SDS011;6773;51.192;7.024;2023-12-22T02:57:24;3.47;;;1.80;;
13404;SDS011;6773;51.192;7.024;2023-12-22T02:59:50;2.00;;;1.80;;
13404;SDS011;6773;51.192;7.024;2023-12-22T03:02:16;3.33;;;1.90;;
13404;SDS011;6773;51.192;7.024;2023-12-22T03:04:42;2.83;;;1.60;;
13404;SDS011;6773;51.192;7.024;2023-12-22T03:07:08;4.70;;;1.80;;
13404;SDS011;6773;51.192;7.024;2023-12-22T03:09:34;4.40;;;1.60;;
13404;SDS011;6773;51.192;7.024;2023-12-22T03:12:00;4.00;;;2.00;;
13404;SDS011;6773;51.192;7.024;2023-12-22T03:14:30;5.37;;;1.77;;
13404;SDS011;6773;51.192;7.024;2023-12-22T03:16:58;2.00;;;1.57;;
13404;SDS011;6773;51.192;7.024;2023-12-22T03:19:24;4.17;;;1.93;;
13404;SDS011;6773;51.192;7.024;2023-12-22T03:21:50;4.33;;;1.87;;
13404;SDS011;6773;51.192;7.024;2023-12-22T03:24:16;4.63;;;1.90;;
13404;SDS011;6773;51.192;7.024;2023-12-22T03:26:43;7.53;;;2.03;;
13404;SDS011;6773;51.192;7.024;2023-12-22T03:29:09;6.27;;;2.03;;
13404;SDS011;6773;51.192;7.024;2023-12-22T03:31:35;6.73;;;1.77;;
13404;SDS011;6773;51.192;7.024;2023-12-22T03:34:01;3.90;;;2.23;;
13404;SDS011;6773;51.192;7.024;2023-12-22T03:36:27;4.13;;;1.77;;
13404;SDS011;6773;51.192;7.024;2023-12-22T03:38:52;7.97;;;2.40;;
13404;SDS011;6773;51.192;7.024;2023-12-22T03:41:18;3.17;;;2.03;;
13404;SDS011;6773;51.192;7.024;2023-12-22T03:43:44;3.90;;;2.10;;
13404;SDS011;6773;51.192;7.024;2023-12-22T03:46:10;7.57;;;2.00;;
13404;SDS011;6773;51.192;7.024;2023-12-22T03:48:36;5.00;;;2.50;;
13404;SDS011;6773;51.192;7.024;2023-12-22T03:51:02;4.57;;;2.23;;
13404;SDS011;6773;51.192;7.024;2023-12-22T03:53:29;5.40;;;1.97;;
13404;SDS011;6773;51.192;7.024;2023-12-22T03:55:55;5.03;;;2.37;;
13404;SDS011;6773;51.192;7.024;2023-12-22T03:58:21;4.57;;;1.87;;
13404;SDS011;6773;51.192;7.024;2023-12-22T04:00:47;6.40;;;2.23;;
13404;SDS011;6773;51.192;7.024;2023-12-22T04:03:13;6.00;;;2.57;;
13404;SDS011;6773;51.192;7.024;2023-12-22T04:05:39;7.30;;;1.80;;
13404;SDS011;6773;51.192;7.024;2023-12-22T04:08:05;10.83;;;2.53;;
13404;SDS011;6773;51.192;7.024;2023-12-22T04:10:32;3.97;;;2.17;;
13404;SDS011;6773;51.192;7.024;2023-12-22T04:12:58;4.93;;;2.20;;
13404;SDS011;6773;51.192;7.024;2023-12-22T04:15:24;6.33;;;2.90;;
13404;SDS011;6773;51.192;7.024;2023-12-22T04:17:49;3.23;;;1.90;;
13404;SDS011;6773;51.192;7.024;2023-12-22T04:20:15;5.57;;;2.00;;
13404;SDS011;6773;51.192;7.024;2023-12-22T04:22:41;5.23;;;2.07;;
13404;SDS011;6773;51.192;7.024;2023-12-22T04:25:07;4.30;;;2.20;;
13404;SDS011;6773;51.192;7.024;2023-12-22T04:27:34;5.93;;;2.40;;
13404;SDS011;6773;51.192;7.024;2023-12-22T04:30:00;10.43;;;3.00;;
13404;SDS011;6773;51.192;7.024;2023-12-22T04:32:26;9.23;;;3.07;;
13404;SDS011;6773;51.192;7.024;2023-12-22T04:34:52;10.60;;;2.40;;
13404;SDS011;6773;51.192;7.024;2023-12-22T04:37:18;9.50;;;2.80;;
13404;SDS011;6773;51.192;7.024;2023-12-22T04:39:44;6.80;;;2.33;;
13404;SDS011;6773;51.192;7.024;2023-12-22T04:42:10;9.93;;;2.60;;
13404;SDS011;6773;51.192;7.024;2023-12-22T04:44:36;7.10;;;2.77;;
13404;SDS011;6773;51.192;7.024;2023-12-22T04:47:02;6.93;;;3.03;;
13404;SDS011;6773;51.192;7.024;2023-12-22T04:49:28;10.30;;;2.53;;
13404;SDS011;6773;51.192;7.024;2023-12-22T04:51:54;8.43;;;2.63;;
13404;SDS011;6773;51.192;7.024;2023-12-22T04:54:20;10.60;;;2.60;;
13404;SDS011;6773;51.192;7.024;2023-12-22T04:56:46;9.20;;;3.07;;
13404;SDS011;6773;51.192;7.024;2023-12-22T04:59:12;6.53;;;2.30;;
13404;SDS011;6773;51.192;7.024;2023-12-22T05:01:38;11.97;;;2.70;;
13404;SDS011;6773;51.192;7.024;2023-12-22T05:04:04;14.47;;;3.23;;
13404;SDS011;6773;51.192;7.024;2023-12-22T05:06:30;10.23;;;2.97;;
13404;SDS011;6773;51.192;7.024;2023-12-22T05:08:56;8.80;;;2.73;;
13404;SDS011;6773;51.192;7.024;2023-12-22T05:11:22;7.80;;;2.80;;
13404;SDS011;6773;51.192;7.024;2023-12-22T05:13:48;11.60;;;4.30;;
13404;SDS011;6773;51.192;7.024;2023-12-22T05:16:14;5.10;;;2.67;;
13404;SDS011;6773;51.192;7.024;2023-12-22T05:18:40;12.63;;;2.97;;
13404;SDS011;6773;51.192;7.024;2023-12-22T05:21:06;8.43;;;2.80;;
13404;SDS011;6773;51.192;7.024;2023-12-22T05:23:32;8.93;;;2.73;;
13404;SDS011;6773;51.192;7.024;2023-12-22T05:25:58;11.23;;;2.93;;
13404;SDS011;6773;51.192;7.024;2023-12-22T05:28:24;14.77;;;2.97;;
13404;SDS011;6773;51.192;7.024;2023-12-22T05:30:50;15.97;;;3.97;;
13404;SDS011;6773;51.192;7.024;2023-12-22T05:33:16;13.20;;;3.07;;
13404;SDS011;6773;51.192;7.024;2023-12-22T05:35:42;12.90;;;3.10;;
13404;SDS011;6773;51.192;7.024;2023-12-22T05:38:08;11.50;;;4.30;;
13404;SDS011;6773;51.192;7.024;2023-12-22T05:40:34;9.70;;;3.57;;
13404;SDS011;6773;51.192;7.024;2023-12-22T05:42:59;12.63;;;3.30;;
13404;SDS011;6773;51.192;7.024;2023-12-22T05:45:25;12.93;;;3.37;;
13404;SDS011;6773;51.192;7.024;2023-12-22T05:47:51;8.43;;;2.70;;
13404;SDS011;6773;51.192;7.024;2023-12-22T05:50:17;10.90;;;3.30;;
13404;SDS011;6773;51.192;7.024;2023-12-22T05:52:42;17.07;;;2.77;;
13404;SDS011;6773;51.192;7.024;2023-12-22T05:55:09;9.53;;;2.53;;
13404;SDS011;6773;51.192;7.024;2023-12-22T05:57:35;13.60;;;3.33;;
13404;SDS011;6773;51.192;7.024;2023-12-22T06:00:02;8.00;;;2.53;;
13404;SDS011;6773;51.192;7.024;2023-12-22T06:02:32;5.50;;;2.60;;
13404;SDS011;6773;51.192;7.024;2023-12-22T06:04:58;7.73;;;2.63;;
13404;SDS011;6773;51.192;7.024;2023-12-22T06:07:24;9.70;;;4.03;;
13404;SDS011;6773;51.192;7.024;2023-12-22T06:09:50;7.23;;;3.13;;
13404;SDS011;6773;51.192;7.024;2023-12-22T06:12:15;10.83;;;3.40;;
13404;SDS011;6773;51.192;7.024;2023-12-22T06:14:41;13.37;;;3.53;;
13404;SDS011;6773;51.192;7.024;2023-12-22T06:17:07;6.13;;;3.60;;
13404;SDS011;6773;51.192;7.024;2023-12-22T06:19:34;6.37;;;3.00;;
13404;SDS011;6773;51.192;7.024;2023-12-22T06:22:01;6.50;;;3.50;;
13404;SDS011;6773;51.192;7.024;2023-12-22T06:24:27;6.93;;;3.00;;
13404;SDS011;6773;51.192;7.024;2023-12-22T06:26:53;9.63;;;3.07;;
13404;SDS011;6773;51.192;7.024;2023-12-22T06:29:19;7.17;;;2.93;;
13404;SDS011;6773;51.192;7.024;2023-12-22T06:31:45;9.57;;;3.53;;
13404;SDS011;6773;51.192;7.024;2023-12-22T06:34:15;6.57;;;2.80;;
13404;SDS011;6773;51.192;7.024;2023-12-22T06:36:41;6.07;;;3.77;;
13404;SDS011;6773;51.192;7.024;2023-12-22T06:39:08;11.97;;;3.40;;
13404;SDS011;6773;51.192;7.024;2023-12-22T06:41:33;8.43;;;3.13;;
13404;SDS011;6773;51.192;7.024;2023-12-22T06:43:59;6.80;;;2.97;;
13404;SDS011;6773;51.192;7.024;2023-12-22T06:46:26;7.77;;;3.30;;
13404;SDS011;6773;51.192;7.024;2023-12-22T06:48:54;8.23;;;3.03;;
13404;SDS011;6773;51.192;7.024;2023-12-22T06:51:21;9.10;;;3.23;;
13404;SDS011;6773;51.192;7.024;2023-12-22T06:53:48;11.47;;;3.53;;
13404;SDS011;6773;51.192;7.024;2023-12-22T06:56:15;11.93;;;3.73;;
13404;SDS011;6773;51.192;7.024;2023-12-22T06:58:41;13.70;;;4.20;;
13404;SDS011;6773;51.192;7.024;2023-12-22T07:01:07;9.27;;;2.73;;
13404;SDS011;6773;51.192;7.024;2023-12-22T07:03:33;13.53;;;3.40;;
13404;SDS011;6773;51.192;7.024;2023-12-22T07:05:59;7.83;;;2.63;;
13404;SDS011;6773;51.192;7.024;2023-12-22T07:08:25;12.47;;;2.60;;
13404;SDS011;6773;51.192;7.024;2023-12-22T07:10:51;12.20;;;2.83;;
13404;SDS011;6773;51.192;7.024;2023-12-22T07:13:17;9.63;;;2.93;;
13404;SDS011;6773;51.192;7.024;2023-12-22T07:15:43;12.13;;;3.00;;
13404;SDS011;6773;51.192;7.024;2023-12-22T07:18:09;5.40;;;2.33;;
13404;SDS011;6773;51.192;7.024;2023-12-22T07:20:35;8.90;;;2.07;;
13404;SDS011;6773;51.192;7.024;2023-12-22T07:23:01;12.07;;;3.40;;
13404;SDS011;6773;51.192;7.024;2023-12-22T07:25:27;9.77;;;2.50;;
13404;SDS011;6773;51.192;7.024;2023-12-22T07:27:53;20.57;;;3.10;;
13404;SDS011;6773;51.192;7.024;2023-12-22T07:30:19;6.83;;;2.40;;
13404;SDS011;6773;51.192;7.024;2023-12-22T07:32:45;7.50;;;2.60;;
13404;SDS011;6773;51.192;7.024;2023-12-22T07:35:13;10.47;;;3.07;;
13404;SDS011;6773;51.192;7.024;2023-12-22T07:37:39;7.40;;;2.33;;
13404;SDS011;6773;51.192;7.024;2023-12-22T07:40:05;6.33;;;2.80;;
13404;SDS011;6773;51.192;7.024;2023-12-22T07:42:32;12.87;;;2.90;;
13404;SDS011;6773;51.192;7.024;2023-12-22T07:44:57;5.47;;;2.37;;
13404;SDS011;6773;51.192;7.024;2023-12-22T07:47:23;8.00;;;2.30;;
13404;SDS011;6773;51.192;7.024;2023-12-22T07:49:49;10.40;;;3.00;;
13404;SDS011;6773;51.192;7.024;2023-12-22T07:52:15;5.27;;;2.53;;
13404;SDS011;6773;51.192;7.024;2023-12-22T07:54:41;7.20;;;2.80;;
13404;SDS011;6773;51.192;7.024;2023-12-22T07:57:06;5.90;;;2.53;;
13404;SDS011;6773;51.192;7.024;2023-12-22T07:59:32;6.07;;;2.63;;
13404;SDS011;6773;51.192;7.024;2023-12-22T08:01:58;9.80;;;2.70;;
13404;SDS011;6773;51.192;7.024;2023-12-22T08:04:24;6.50;;;1.93;;
13404;SDS011;6773;51.192;7.024;2023-12-22T08:06:50;9.90;;;2.43;;
13404;SDS011;6773;51.192;7.024;2023-12-22T08:09:17;10.23;;;2.73;;
13404;SDS011;6773;51.192;7.024;2023-12-22T08:11:42;9.87;;;2.60;;
13404;SDS011;6773;51.192;7.024;2023-12-22T08:14:11;8.57;;;2.50;;
13404;SDS011;6773;51.192;7.024;2023-12-22T08:16:37;10.10;;;2.73;;
13404;SDS011;6773;51.192;7.024;2023-12-22T08:19:03;15.33;;;3.17;;
13404;SDS011;6773;51.192;7.024;2023-12-22T08:21:28;7.73;;;2.37;;
13404;SDS011;6773;51.192;7.024;2023-12-22T08:23:54;6.97;;;2.73;;
13404;SDS011;6773;51.192;7.024;2023-12-22T08:26:20;7.43;;;3.10;;
13404;SDS011;6773;51.192;7.024;2023-12-22T08:28:46;9.87;;;2.80;;
13404;SDS011;6773;51.192;7.024;2023-12-22T08:31:12;11.07;;;3.60;;
13404;SDS011;6773;51.192;7.024;2023-12-22T08:33:38;9.63;;;3.70;;
13404;SDS011;6773;51.192;7.024;2023-12-22T08:36:06;15.97;;;4.87;;
13404;SDS011;6773;51.192;7.024;2023-12-22T08:38:32;16.63;;;5.20;;
13404;SDS011;6773;51.192;7.024;2023-12-22T08:40:58;18.87;;;5.40;;
13404;SDS011;6773;51.192;7.024;2023-12-22T08:43:24;15.93;;;5.27;;
13404;SDS011;6773;51.192;7.024;2023-12-22T08:45:49;12.87;;;5.00;;
13404;SDS011;6773;51.192;7.024;2023-12-22T08:48:15;21.90;;;7.03;;
13404;SDS011;6773;51.192;7.024;2023-12-22T08:50:41;20.53;;;4.97;;
13404;SDS011;6773;51.192;7.024;2023-12-22T08:53:07;17.97;;;4.53;;
13404;SDS011;6773;51.192;7.024;2023-12-22T08:55:33;15.80;;;4.87;;
13404;SDS011;6773;51.192;7.024;2023-12-22T08:57:59;20.00;;;5.50;;
13404;SDS011;6773;51.192;7.024;2023-12-22T09:00:25;19.27;;;5.37;;
13404;SDS011;6773;51.192;7.024;2023-12-22T09:02:51;21.87;;;4.40;;
13404;SDS011;6773;51.192;7.024;2023-12-22T09:05:18;12.07;;;4.20;;
13404;SDS011;6773;51.192;7.024;2023-12-22T09:07:45;16.77;;;4.90;;
13404;SDS011;6773;51.192;7.024;2023-12-22T09:10:11;21.30;;;5.37;;
13404;SDS011;6773;51.192;7.024;2023-12-22T09:12:37;21.60;;;4.87;;
13404;SDS011;6773;51.192;7.024;2023-12-22T09:15:03;22.77;;;4.27;;
13404;SDS011;6773;51.192;7.024;2023-12-22T09:17:29;16.23;;;4.73;;
13404;SDS011;6773;51.192;7.024;2023-12-22T09:19:55;18.33;;;5.33;;
13404;SDS011;6773;51.192;7.024;2023-12-22T09:22:21;24.37;;;5.33;;
13404;SDS011;6773;51.192;7.024;2023-12-22T09:24:47;22.37;;;5.33;;
13404;SDS011;6773;51.192;7.024;2023-12-22T09:27:14;24.17;;;5.57;;
13404;SDS011;6773;51.192;7.024;2023-12-22T09:29:39;23.47;;;5.30;;
13404;SDS011;6773;51.192;7.024;2023-12-22T09:32:05;19.17;;;4.50;;
13404;SDS011;6773;51.192;7.024;2023-12-22T09:34:32;31.40;;;5.43;;
13404;SDS011;6773;51.192;7.024;2023-12-22T09:36:58;33.43;;;5.53;;
13404;SDS011;6773;51.192;7.024;2023-12-22T09:39:23;20.73;;;5.80;;
13404;SDS011;6773;51.192;7.024;2023-12-22T09:41:50;17.40;;;4.43;;
13404;SDS011;6773;51.192;7.024;2023-12-22T09:44:17;20.70;;;4.57;;
13404;SDS011;6773;51.192;7.024;2023-12-22T09:46:44;21.80;;;5.17;;
13404;SDS011;6773;51.192;7.024;2023-12-22T09:49:11;20.90;;;4.53;;
13404;SDS011;6773;51.192;7.024;2023-12-22T09:51:38;22.87;;;5.07;;
13404;SDS011;6773;51.192;7.024;2023-12-22T09:54:05;23.73;;;5.07;;
13404;SDS011;6773;51.192;7.024;2023-12-22T09:56:32;19.17;;;4.30;;
13404;SDS011;6773;51.192;7.024;2023-12-22T09:58:59;17.33;;;5.23;;
13404;SDS011;6773;51.192;7.024;2023-12-22T10:01:25;22.90;;;5.47;;
13404;SDS011;6773;51.192;7.024;2023-12-22T10:03:51;23.57;;;5.33;;
13404;SDS011;6773;51.192;7.024;2023-12-22T10:06:17;20.80;;;5.00;;
13404;SDS011;6773;51.192;7.024;2023-12-22T10:08:44;12.63;;;5.47;;
13404;SDS011;6773;51.192;7.024;2023-12-22T10:11:10;17.67;;;4.77;;
13404;SDS011;6773;51.192;7.024;2023-12-22T10:13:36;16.67;;;5.00;;
13404;SDS011;6773;51.192;7.024;2023-12-22T10:16:05;13.17;;;4.80;;
13404;SDS011;6773;51.192;7.024;2023-12-22T10:18:32;19.37;;;4.47;;
13404;SDS011;6773;51.192;7.024;2023-12-22T10:20:58;18.83;;;5.37;;
13404;SDS011;6773;51.192;7.024;2023-12-22T10:23:24;14.87;;;4.27;;
13404;SDS011;6773;51.192;7.024;2023-12-22T10:25:50;19.17;;;5.63;;
13404;SDS011;6773;51.192;7.024;2023-12-22T10:28:16;17.33;;;4.33;;
13404;SDS011;6773;51.192;7.024;2023-12-22T10:30:46;17.07;;;4.57;;
13404;SDS011;6773;51.192;7.024;2023-12-22T10:33:13;9.57;;;3.40;;
13404;SDS011;6773;51.192;7.024;2023-12-22T10:35:40;20.87;;;4.43;;
13404;SDS011;6773;51.192;7.024;2023-12-22T10:38:07;15.93;;;4.17;;
13404;SDS011;6773;51.192;7.024;2023-12-22T10:40:34;10.60;;;4.03;;
13404;SDS011;6773;51.192;7.024;2023-12-22T10:43:02;8.33;;;2.70;;
13404;SDS011;6773;51.192;7.024;2023-12-22T10:45:28;17.80;;;3.73;;
13404;SDS011;6773;51.192;7.024;2023-12-22T10:47:56;7.60;;;3.07;;
13404;SDS011;6773;51.192;7.024;2023-12-22T10:50:22;13.17;;;3.73;;
13404;SDS011;6773;51.192;7.024;2023-12-22T10:52:52;12.83;;;3.93;;
13404;SDS011;6773;51.192;7.024;2023-12-22T10:55:18;15.87;;;4.43;;
13404;SDS011;6773;51.192;7.024;2023-12-22T10:57:45;14.83;;;3.77;;
13404;SDS011;6773;51.192;7.024;2023-12-22T11:00:11;11.13;;;4.00;;
13404;SDS011;6773;51.192;7.024;2023-12-22T11:02:41;15.20;;;4.33;;
13404;SDS011;6773;51.192;7.024;2023-12-22T11:05:08;8.83;;;3.37;;
13404;SDS011;6773;51.192;7.024;2023-12-22T11:07:37;8.50;;;3.87;;
13404;SDS011;6773;51.192;7.024;2023-12-22T11:10:05;13.40;;;5.37;;
13404;SDS011;6773;51.192;7.024;2023-12-22T11:12:37;7.57;;;4.10;;
13404;SDS011;6773;51.192;7.024;2023-12-22T11:15:04;8.20;;;3.40;;
13404;SDS011;6773;51.192;7.024;2023-12-22T11:17:34;11.53;;;3.77;;
13404;SDS011;6773;51.192;7.024;2023-12-22T11:20:01;7.93;;;3.40;;
13404;SDS011;6773;51.192;7.024;2023-12-22T11:22:28;8.70;;;3.60;;
13404;SDS011;6773;51.192;7.024;2023-12-22T11:24:56;5.37;;;3.30;;
13404;SDS011;6773;51.192;7.024;2023-12-22T11:27:24;10.17;;;3.70;;
13404;SDS011;6773;51.192;7.024;2023-12-22T11:29:51;8.30;;;3.97;;
13404;SDS011;6773;51.192;7.024;2023-12-22T11:32:18;5.90;;;3.73;;
13404;SDS011;6773;51.192;7.024;2023-12-22T11:34:45;7.03;;;3.57;;
13404;SDS011;6773;51.192;7.024;2023-12-22T11:37:12;9.43;;;4.30;;
13404;SDS011;6773;51.192;7.024;2023-12-22T11:39:39;7.60;;;3.47;;
13404;SDS011;6773;51.192;7.024;2023-12-22T11:42:06;10.07;;;3.13;;
13404;SDS011;6773;51.192;7.024;2023-12-22T11:44:34;3.40;;;2.93;;
13404;SDS011;6773;51.192;7.024;2023-12-22T11:47:07;5.13;;;3.67;;
13404;SDS011;6773;51.192;7.024;2023-12-22T11:49:36;3.27;;;2.83;;
13404;SDS011;6773;51.192;7.024;2023-12-22T11:52:09;8.43;;;4.00;;
13404;SDS011;6773;51.192;7.024;2023-12-22T11:54:48;6.43;;;3.30;;
13404;SDS011;6773;51.192;7.024;2023-12-22T12:00:39;7.00;;;3.30;;
13404;SDS011;6773;51.192;7.024;2023-12-22T12:02:40;9.53;;;3.23;;
13404;SDS011;6773;51.192;7.024;2023-12-22T12:05:07;4.47;;;3.07;;
13404;SDS011;6773;51.192;7.024;2023-12-22T12:10:05;6.07;;;3.30;;
13404;SDS011;6773;51.192;7.024;2023-12-22T12:12:31;10.00;;;2.50;;
13404;SDS011;6773;51.192;7.024;2023-12-22T12:15:00;4.77;;;3.00;;
13404;SDS011;6773;51.192;7.024;2023-12-22T12:17:32;4.30;;;2.40;;
13404;SDS011;6773;51.192;7.024;2023-12-22T12:19:58;5.70;;;2.67;;
13404;SDS011;6773;51.192;7.024;2023-12-22T12:22:25;2.93;;;2.33;;
13404;SDS011;6773;51.192;7.024;2023-12-22T12:24:51;5.20;;;2.10;;
13404;SDS011;6773;51.192;7.024;2023-12-22T12:27:18;4.77;;;2.30;;
13404;SDS011;6773;51.192;7.024;2023-12-22T12:29:44;2.67;;;2.03;;
13404;SDS011;6773;51.192;7.024;2023-12-22T12:32:10;3.97;;;2.07;;
13404;SDS011;6773;51.192;7.024;2023-12-22T12:34:42;3.50;;;2.03;;
13404;SDS011;6773;51.192;7.024;2023-12-22T12:37:08;6.47;;;3.07;;
13404;SDS011;6773;51.192;7.024;2023-12-22T12:39:34;6.27;;;2.50;;
13404;SDS011;6773;51.192;7.024;2023-12-22T12:42:01;5.83;;;2.40;;
13404;SDS011;6773;51.192;7.024;2023-12-22T12:44:30;6.33;;;3.77;;
13404;SDS011;6773;51.192;7.024;2023-12-22T12:46:57;2.20;;;1.80;;
13404;SDS011;6773;51.192;7.024;2023-12-22T12:49:24;3.70;;;2.20;;
13404;SDS011;6773;51.192;7.024;2023-12-22T12:51:52;3.13;;;2.00;;
13404;SDS011;6773;51.192;7.024;2023-12-22T12:54:19;4.07;;;2.10;;
13404;SDS011;6773;51.192;7.024;2023-12-22T12:56:45;5.70;;;2.07;;
13404;SDS011;6773;51.192;7.024;2023-12-22T12:59:15;3.77;;;2.10;;
13404;SDS011;6773;51.192;7.024;2023-12-22T13:01:46;5.63;;;2.33;;
13404;SDS011;6773;51.192;7.024;2023-12-22T13:04:13;3.47;;;2.20;;
13404;SDS011;6773;51.192;7.024;2023-12-22T13:06:45;2.10;;;1.90;;
13404;SDS011;6773;51.192;7.024;2023-12-22T13:09:11;5.50;;;2.37;;
13404;SDS011;6773;51.192;7.024;2023-12-22T13:11:40;2.43;;;1.67;;
13404;SDS011;6773;51.192;7.024;2023-12-22T13:14:07;4.10;;;2.03;;
13404;SDS011;6773;51.192;7.024;2023-12-22T13:16:33;5.27;;;1.90;;
13404;SDS011;6773;51.192;7.024;2023-12-22T13:19:00;5.10;;;1.80;;
13404;SDS011;6773;51.192;7.024;2023-12-22T13:21:27;8.67;;;2.97;;
13404;SDS011;6773;51.192;7.024;2023-12-22T13:26:38;3.77;;;1.77;;
13404;SDS011;6773;51.192;7.024;2023-12-22T13:29:05;1.73;;;1.63;;
13404;SDS011;6773;51.192;7.024;2023-12-22T13:31:31;3.13;;;1.70;;
13404;SDS011;6773;51.192;7.024;2023-12-22T13:33:58;3.07;;;1.87;;
13404;SDS011;6773;51.192;7.024;2023-12-22T13:36:26;4.53;;;1.63;;
13404;SDS011;6773;51.192;7.024;2023-12-22T13:38:53;3.47;;;1.93;;
13404;SDS011;6773;51.192;7.024;2023-12-22T13:41:19;2.57;;;2.03;;
13404;SDS011;6773;51.192;7.024;2023-12-22T13:43:45;3.70;;;1.90;;
13404;SDS011;6773;51.192;7.024;2023-12-22T13:46:12;2.63;;;1.90;;
13404;SDS011;6773;51.192;7.024;2023-12-22T13:48:39;3.50;;;2.10;;
13404;SDS011;6773;51.192;7.024;2023-12-22T13:51:05;2.87;;;2.50;;
13404;SDS011;6773;51.192;7.024;2023-12-22T13:53:31;4.50;;;2.27;;
13404;SDS011;6773;51.192;7.024;2023-12-22T13:56:00;2.60;;;1.77;;
13404;SDS011;6773;51.192;7.024;2023-12-22T13:58:26;2.57;;;1.90;;
13404;SDS011;6773;51.192;7.024;2023-12-22T14:00:52;4.23;;;2.00;;
13404;SDS011;6773;51.192;7.024;2023-12-22T14:03:19;3.83;;;1.93;;
13404;SDS011;6773;51.192;7.024;2023-12-22T14:05:49;1.90;;;1.70;;
13404;SDS011;6773;51.192;7.024;2023-12-22T14:08:15;4.80;;;2.27;;
13404;SDS011;6773;51.192;7.024;2023-12-22T14:10:48;3.90;;;2.63;;
13404;SDS011;6773;51.192;7.024;2023-12-22T14:13:14;6.57;;;2.03;;
13404;SDS011;6773;51.192;7.024;2023-12-22T14:15:43;4.83;;;1.80;;
13404;SDS011;6773;51.192;7.024;2023-12-22T14:18:12;2.30;;;2.00;;
13404;SDS011;6773;51.192;7.024;2023-12-22T14:20:38;4.77;;;2.10;;
13404;SDS011;6773;51.192;7.024;2023-12-22T14:23:04;3.47;;;2.30;;
13404;SDS011;6773;51.192;7.024;2023-12-22T14:25:30;3.47;;;1.97;;
13404;SDS011;6773;51.192;7.024;2023-12-22T14:27:57;3.33;;;2.00;;
13404;SDS011;6773;51.192;7.024;2023-12-22T14:30:24;4.53;;;1.97;;
13404;SDS011;6773;51.192;7.024;2023-12-22T14:32:50;3.17;;;1.50;;
13404;SDS011;6773;51.192;7.024;2023-12-22T14:35:16;2.40;;;1.80;;
13404;SDS011;6773;51.192;7.024;2023-12-22T14:37:41;5.03;;;2.07;;
13404;SDS011;6773;51.192;7.024;2023-12-22T14:40:08;3.77;;;1.90;;
13404;SDS011;6773;51.192;7.024;2023-12-22T14:42:34;4.53;;;2.07;;
13404;SDS011;6773;51.192;7.024;2023-12-22T14:45:00;3.13;;;2.00;;
13404;SDS011;6773;51.192;7.024;2023-12-22T14:47:29;4.07;;;1.80;;
13404;SDS011;6773;51.192;7.024;2023-12-22T14:49:55;2.37;;;1.90;;
13404;SDS011;6773;51.192;7.024;2023-12-22T14:52:24;3.43;;;2.00;;
13404;SDS011;6773;51.192;7.024;2023-12-22T14:54:50;3.30;;;2.30;;
13404;SDS011;6773;51.192;7.024;2023-12-22T14:57:16;2.97;;;2.20;;
13404;SDS011;6773;51.192;7.024;2023-12-22T14:59:46;7.80;;;2.40;;
13404;SDS011;6773;51.192;7.024;2023-12-22T15:02:12;2.50;;;2.00;;
13404;SDS011;6773;51.192;7.024;2023-12-22T15:04:38;4.00;;;2.07;;
13404;SDS011;6773;51.192;7.024;2023-12-22T15:07:04;7.23;;;2.23;;
13404;SDS011;6773;51.192;7.024;2023-12-22T15:09:30;2.47;;;1.97;;
13404;SDS011;6773;51.192;7.024;2023-12-22T15:11:56;4.43;;;2.10;;